Time;durP1;ratioP1;P1;durP2;ratioP2;P2;SDS_P1;SDS_P2;PMS_P1;PMS_P2;Temp;Humidity;BMP_temperature;BMP_pressure;BME280_temperature;BME280_humidity;BME280_pressure;Samples;Min_cycle;Max_cycle;Signal;HPM_P1;HPM_P2
2022/08/26 00:02:14;;;;;;;2.70;2.50;;;;;;;29.31;37.35;96488.78;5094757;28;20020;-35
2022/08/26 00:04:40;;;;;;;3.03;2.63;;;;;;;29.31;37.14;96491.59;5094508;28;20036;-35
2022/08/26 00:07:05;;;;;;;3.35;2.63;;;;;;;29.36;37.29;96487.16;5094654;28;20024;-35
2022/08/26 00:09:31;;;;;;;3.17;2.83;;;;;;;29.23;37.22;96490.81;5094479;28;20027;-35
2022/08/26 00:11:57;;;;;;;3.67;2.85;;;;;;;29.31;37.26;96486.00;5094438;28;20038;-35
2022/08/26 00:14:24;;;;;;;4.15;2.90;;;;;;;29.30;37.17;96484.53;5076346;28;20103;-35
2022/08/26 00:16:50;;;;;;;3.08;2.38;;;;;;;29.34;37.27;96484.16;5094168;28;20023;-35
2022/08/26 00:19:18;;;;;;;3.00;2.70;;;;;;;29.23;37.41;96494.34;5071232;28;20263;-35
2022/08/26 00:21:46;;;;;;;2.97;2.40;;;;;;;29.25;37.25;96494.56;5072528;28;20492;-35
2022/08/26 00:24:12;;;;;;;3.00;2.58;;;;;;;29.27;37.47;96491.97;5074061;28;20032;-35
2022/08/26 00:26:38;;;;;;;3.75;2.90;;;;;;;29.30;37.66;96492.91;5074041;28;20025;-35
2022/08/26 00:29:04;;;;;;;2.78;2.58;;;;;;;29.37;37.05;96492.19;5073896;28;20079;-35
2022/08/26 00:31:30;;;;;;;3.00;2.70;;;;;;;29.24;37.48;96486.72;5073786;28;20028;-35
2022/08/26 00:33:56;;;;;;;3.20;2.83;;;;;;;29.24;37.33;96483.94;5073981;28;20414;-35
2022/08/26 00:36:22;;;;;;;3.38;2.92;;;;;;;29.20;37.64;96484.28;5073809;28;20150;-35
2022/08/26 00:38:48;;;;;;;3.55;2.63;;;;;;;29.19;37.52;96487.63;5073694;28;20524;-35
2022/08/26 00:41:14;;;;;;;3.63;2.70;;;;;;;29.30;37.23;96481.75;5073561;28;20032;-35
2022/08/26 00:43:39;;;;;;;4.45;2.78;;;;;;;29.34;37.20;96486.94;5073485;28;20060;-35
2022/08/26 00:46:22;;;;;;;2.97;2.50;;;;;;;29.27;37.47;96489.16;5073636;28;20020;-35
2022/08/26 00:48:52;;;;;;;3.50;2.85;;;;;;;29.32;37.11;96490.28;5073583;28;20027;-37
2022/08/26 00:51:24;;;;;;;4.18;2.80;;;;;;;29.25;37.46;96485.44;5073305;28;20462;-35
2022/08/26 00:53:54;;;;;;;2.60;2.40;;;;;;;29.35;37.17;96486.41;5073441;28;20090;-35
2022/08/26 00:56:22;;;;;;;4.15;2.80;;;;;;;29.28;37.35;96489.91;5073312;28;20029;-36
2022/08/26 00:58:49;;;;;;;2.90;2.50;;;;;;;29.33;37.17;96497.38;5073394;28;20020;-36
2022/08/26 01:01:16;;;;;;;3.72;2.60;;;;;;;29.29;37.55;96480.25;5073348;28;20047;-35
2022/08/26 01:03:43;;;;;;;4.35;2.97;;;;;;;29.35;37.15;96485.66;5073262;28;20086;-35
2022/08/26 01:06:09;;;;;;;4.60;2.97;;;;;;;29.28;37.29;96484.34;5072424;28;20021;-35
2022/08/26 01:08:35;;;;;;;3.60;2.80;;;;;;;29.25;37.32;96482.63;5073395;28;20029;-36
2022/08/26 01:11:01;;;;;;;3.92;2.70;;;;;;;29.29;37.26;96486.59;5055265;28;20090;-35
2022/08/26 01:13:29;;;;;;;3.70;2.70;;;;;;;29.26;37.16;96475.75;5073173;28;20107;-35
2022/08/26 01:15:59;;;;;;;3.35;2.47;;;;;;;29.30;36.96;96481.75;5073471;28;20411;-35
2022/08/26 01:18:25;;;;;;;4.43;2.97;;;;;;;29.15;37.27;96487.25;5073156;28;20119;-36
2022/08/26 01:21:06;;;;;;;3.17;2.53;;;;;;;29.33;36.95;96479.88;5073206;28;20051;-35
2022/08/26 01:23:36;;;;;;;4.75;3.22;;;;;;;29.23;37.07;96482.44;5073324;28;20393;-35
2022/08/26 01:26:08;;;;;;;3.08;2.78;;;;;;;29.29;36.93;96480.25;5073462;28;20019;-35
2022/08/26 01:28:36;;;;;;;3.63;2.63;;;;;;;29.24;37.10;96475.56;5073075;28;20028;-36
2022/08/26 01:31:04;;;;;;;4.93;2.85;;;;;;;29.30;36.90;96478.94;5073119;28;20082;-35
2022/08/26 01:33:36;;;;;;;4.18;2.78;;;;;;;29.23;36.90;96477.59;5073324;28;20020;-36
2022/08/26 01:36:02;;;;;;;3.08;2.78;;;;;;;29.25;36.73;96475.00;5073113;28;20466;-35
2022/08/26 01:38:28;;;;;;;3.55;2.70;;;;;;;29.20;37.17;96473.09;5073042;28;20432;-35
2022/08/26 01:40:53;;;;;;;2.60;2.40;;;;;;;29.30;36.54;96476.88;5073047;28;20024;-35
2022/08/26 01:43:23;;;;;;;2.38;2.13;;;;;;;29.33;36.66;96477.81;5072713;28;20049;-35
2022/08/26 01:45:49;;;;;;;3.42;2.70;;;;;;;29.30;36.86;96476.16;5072948;28;20031;-36
2022/08/26 01:48:18;;;;;;;3.72;2.58;;;;;;;29.13;37.03;96462.66;5073230;28;20485;-35
2022/08/26 01:50:45;;;;;;;4.05;2.50;;;;;;;29.22;37.06;96466.97;5072925;28;20458;-35
2022/08/26 01:53:15;;;;;;;3.03;2.60;;;;;;;29.16;36.95;96467.16;5072945;28;20466;-36
2022/08/26 01:55:44;;;;;;;4.28;2.40;;;;;;;29.29;36.67;96466.28;5073018;28;20031;-35
2022/08/26 01:58:19;;;;;;;2.55;2.28;;;;;;;29.23;36.69;96472.00;5072770;28;20031;-35
2022/08/26 02:00:45;;;;;;;3.05;2.60;;;;;;;29.15;37.07;96476.06;5072843;28;20032;-35
2022/08/26 02:03:17;;;;;;;3.08;2.50;;;;;;;29.18;36.64;96469.38;5072723;28;20055;-37
2022/08/26 02:05:47;;;;;;;3.08;2.75;;;;;;;29.13;37.20;96461.91;5072726;28;20079;-35
2022/08/26 02:08:16;;;;;;;3.22;2.80;;;;;;;29.24;37.00;96467.91;5072855;28;20021;-35
2022/08/26 02:10:42;;;;;;;3.50;2.42;;;;;;;29.15;36.96;96462.84;5072741;28;20024;-36
2022/08/26 02:13:10;;;;;;;2.40;2.20;;;;;;;29.20;36.84;96464.72;5072636;28;20048;-35
2022/08/26 02:15:39;;;;;;;2.53;2.30;;;;;;;29.05;37.08;96461.88;5072708;28;20054;-35
2022/08/26 02:18:06;;;;;;;2.67;2.40;;;;;;;29.12;37.09;96461.16;5074095;28;20029;-35
2022/08/26 02:20:32;;;;;;;2.97;2.67;;;;;;;29.23;36.53;96460.84;5076365;28;20032;-35
2022/08/26 02:22:58;;;;;;;3.55;2.42;;;;;;;29.13;37.19;96459.09;5076218;28;20390;-35
2022/08/26 02:25:53;;;;;;;3.90;2.70;;;;;;;29.17;36.76;96459.50;5076175;28;20067;-35
2022/08/26 02:28:18;;;;;;;2.72;2.40;;;;;;;29.11;37.21;96456.13;5075595;28;20147;-35
2022/08/26 02:30:45;;;;;;;2.92;2.63;;;;;;;29.19;36.98;96445.72;5076027;28;20096;-35
2022/08/26 02:33:11;;;;;;;4.35;2.63;;;;;;;29.15;37.16;96448.88;5076108;28;20397;-35
2022/08/26 02:35:37;;;;;;;4.00;2.33;;;;;;;29.16;36.97;96449.63;5058004;28;20021;-35
2022/08/26 02:38:06;;;;;;;2.70;2.50;;;;;;;29.21;36.92;96452.25;5075817;28;20036;-35
2022/08/26 02:40:35;;;;;;;4.13;2.65;;;;;;;29.12;37.11;96449.97;5076094;28;20098;-36
2022/08/26 02:43:01;;;;;;;3.00;2.53;;;;;;;29.17;37.09;96446.31;5075699;28;20037;-36
2022/08/26 02:45:27;;;;;;;3.13;2.33;;;;;;;29.16;36.96;96446.84;5076009;28;20020;-36
2022/08/26 02:47:55;;;;;;;4.95;2.72;;;;;;;29.13;37.16;96445.16;5075758;28;20035;-35
2022/08/26 02:50:27;;;;;;;4.15;2.67;;;;;;;29.09;37.11;96439.91;5075972;28;20033;-35
2022/08/26 02:52:53;;;;;;;2.92;2.67;;;;;;;29.06;37.12;96445.84;5075784;28;20500;-35
2022/08/26 02:55:19;;;;;;;3.00;2.67;;;;;;;29.09;37.37;96439.91;5075564;28;20033;-35
2022/08/26 02:57:45;;;;;;;3.92;2.88;;;;;;;29.12;37.17;96438.81;5075802;28;20024;-35
2022/08/26 03:00:13;;;;;;;3.38;2.58;;;;;;;29.18;37.07;96438.63;5075678;28;20051;-35
2022/08/26 03:02:41;;;;;;;3.42;2.40;;;;;;;29.17;36.99;96435.13;5075518;28;20040;-35
2022/08/26 03:05:07;;;;;;;2.75;2.50;;;;;;;29.05;37.34;96436.75;5075477;28;20021;-36
2022/08/26 03:07:32;;;;;;;2.88;2.45;;;;;;;29.12;37.06;96432.47;5075589;28;20020;-35
2022/08/26 03:09:58;;;;;;;2.70;2.50;;;;;;;29.17;37.13;96429.53;5075372;28;20024;-36
2022/08/26 03:12:23;;;;;;;2.55;2.35;;;;;;;29.18;36.93;96431.00;5075350;28;20020;-35
2022/08/26 03:14:49;;;;;;;3.25;2.70;;;;;;;29.16;37.11;96430.09;5075195;28;20449;-35
2022/08/26 03:17:14;;;;;;;3.08;2.72;;;;;;;29.18;37.14;96427.47;5075261;28;20062;-35
2022/08/26 03:19:40;;;;;;;3.10;2.30;;;;;;;29.18;37.08;96433.06;5075140;28;20029;-35
2022/08/26 03:22:06;;;;;;;2.95;2.30;;;;;;;29.08;37.19;96427.25;5075328;28;20016;-35
2022/08/26 03:24:31;;;;;;;3.58;2.70;;;;;;;29.10;37.32;96426.69;5075156;28;20366;-35
2022/08/26 03:26:57;;;;;;;3.67;2.58;;;;;;;29.17;37.17;96417.63;5075625;28;20024;-35
2022/08/26 03:32:07;;;;;;;3.63;2.63;;;;;;;29.13;37.16;96417.97;5075262;28;20035;-35
2022/08/26 03:34:33;;;;;;;4.55;2.80;;;;;;;29.19;37.22;96421.34;5074790;28;20039;-35
2022/08/26 03:36:59;;;;;;;3.03;2.42;;;;;;;29.11;37.33;96417.03;5075027;28;20025;-35
2022/08/26 03:39:25;;;;;;;3.13;2.60;;;;;;;29.17;37.21;96412.03;5074918;28;20027;-35
2022/08/26 03:41:51;;;;;;;3.30;2.53;;;;;;;29.15;37.19;96414.63;5074816;28;20035;-35
2022/08/26 03:44:16;;;;;;;2.97;2.70;;;;;;;29.15;37.13;96418.16;5074533;28;20397;-35
2022/08/26 03:46:42;;;;;;;2.83;2.50;;;;;;;29.07;37.13;96419.41;5056584;28;20032;-35
2022/08/26 03:49:08;;;;;;;3.38;2.47;;;;;;;29.06;37.48;96417.91;5074753;28;20343;-35
2022/08/26 03:51:34;;;;;;;2.60;2.40;;;;;;;29.13;37.23;96420.00;5074791;28;20052;-35
2022/08/26 03:54:01;;;;;;;4.85;2.92;;;;;;;29.18;37.21;96419.09;5074579;28;20129;-35
2022/08/26 03:56:28;;;;;;;4.15;2.55;;;;;;;29.11;37.13;96414.22;5074291;28;20149;-35
2022/08/26 03:58:53;;;;;;;2.78;2.58;;;;;;;29.15;37.44;96415.38;5074557;28;20028;-35
2022/08/26 04:01:19;;;;;;;4.05;2.50;;;;;;;29.12;37.33;96407.34;5074388;28;20035;-35
2022/08/26 04:03:57;;;;;;;3.58;2.72;;;;;;;29.15;37.34;96406.25;5074437;28;20055;-36
2022/08/26 04:06:29;;;;;;;3.55;2.65;;;;;;;29.12;37.33;96399.72;5056314;28;20419;-35
2022/08/26 04:08:56;;;;;;;3.30;2.45;;;;;;;29.12;37.62;96399.72;5074225;28;20462;-35
2022/08/26 04:11:25;;;;;;;3.15;2.50;;;;;;;29.12;37.52;96398.97;5056522;28;20377;-35
2022/08/26 04:13:51;;;;;;;4.55;2.60;;;;;;;29.09;37.11;96400.06;5074345;28;20028;-35
2022/08/26 04:16:17;;;;;;;3.72;2.60;;;;;;;29.15;37.41;96403.47;5074047;28;20380;-35
2022/08/26 04:18:42;;;;;;;3.30;2.50;;;;;;;29.19;37.10;96409.41;5074244;28;20030;-35
2022/08/26 04:21:08;;;;;;;2.67;2.45;;;;;;;29.14;37.39;96401.97;5073838;28;20055;-35
2022/08/26 04:23:35;;;;;;;3.65;2.50;;;;;;;29.10;37.54;96393.19;5056308;28;20024;-35
2022/08/26 04:26:01;;;;;;;4.07;2.83;;;;;;;29.11;37.13;96403.06;5073994;28;20036;-36
2022/08/26 04:28:28;;;;;;;3.20;2.58;;;;;;;29.15;37.32;96409.78;5055931;28;20433;-35
2022/08/26 04:30:54;;;;;;;3.72;2.75;;;;;;;29.00;37.69;96409.72;5073858;28;20028;-35
2022/08/26 04:33:20;;;;;;;4.47;2.42;;;;;;;29.05;37.24;96413.66;5073699;28;20024;-35
2022/08/26 04:35:46;;;;;;;3.65;2.40;;;;;;;29.12;37.50;96410.13;5073487;28;20500;-35
2022/08/26 04:38:11;;;;;;;3.40;2.70;;;;;;;29.11;37.40;96406.59;5074152;28;20067;-36
2022/08/26 04:40:42;;;;;;;3.80;2.70;;;;;;;29.09;37.33;96411.25;5073356;28;20028;-35
2022/08/26 04:43:08;;;;;;;2.90;2.47;;;;;;;29.10;37.53;96412.72;5073571;28;20055;-36
2022/08/26 04:45:38;;;;;;;5.47;2.72;;;;;;;28.95;37.62;96414.16;5073918;28;20366;-35
2022/08/26 04:48:04;;;;;;;3.22;2.80;;;;;;;29.07;37.55;96405.44;5073445;28;20021;-35
2022/08/26 04:50:30;;;;;;;3.65;2.67;;;;;;;29.07;37.35;96411.03;5073559;28;20024;-36
2022/08/26 04:52:55;;;;;;;3.15;2.72;;;;;;;29.06;37.48;96412.34;5073485;28;20099;-35
2022/08/26 04:55:21;;;;;;;4.25;2.67;;;;;;;29.03;37.17;96405.81;5073349;28;20027;-35
2022/08/26 04:57:47;;;;;;;3.15;2.47;;;;;;;29.10;37.26;96405.09;5073332;28;20032;-35
2022/08/26 05:00:12;;;;;;;4.20;2.92;;;;;;;29.05;37.44;96402.50;5073319;28;20189;-35
2022/08/26 05:02:39;;;;;;;2.83;2.58;;;;;;;29.09;37.26;96406.41;5073623;28;20032;-35
2022/08/26 05:05:06;;;;;;;4.97;2.63;;;;;;;29.10;37.26;96393.94;5073399;28;20033;-35
2022/08/26 05:07:33;;;;;;;3.05;2.50;;;;;;;29.10;37.25;96407.16;5085483;28;20020;-35
2022/08/26 05:09:59;;;;;;;3.58;2.85;;;;;;;29.01;37.66;96416.03;5105519;28;20032;-35
2022/08/26 05:12:24;;;;;;;3.25;2.95;;;;;;;29.05;37.34;96411.63;5093125;28;20124;-35
2022/08/26 05:14:50;;;;;;;3.50;2.83;;;;;;;28.99;37.48;96410.25;5091492;28;20031;-35
2022/08/26 05:17:15;;;;;;;2.97;2.67;;;;;;;28.99;37.53;96410.25;5091489;28;20355;-35
2022/08/26 05:19:41;;;;;;;4.13;2.75;;;;;;;29.00;37.50;96409.72;5091461;28;20107;-35
2022/08/26 05:22:06;;;;;;;3.33;2.50;;;;;;;29.06;37.52;96403.97;5091729;28;20035;-35
2022/08/26 05:24:32;;;;;;;3.05;2.55;;;;;;;29.04;37.27;96410.13;5091244;28;20028;-35
2022/08/26 05:26:57;;;;;;;5.10;2.70;;;;;;;29.00;37.59;96408.97;5071288;28;20025;-35
2022/08/26 05:29:23;;;;;;;3.38;2.25;;;;;;;29.06;37.45;96409.53;5071309;28;20028;-35
2022/08/26 05:31:52;;;;;;;3.25;2.47;;;;;;;29.08;37.32;96407.69;5070981;28;20078;-35
2022/08/26 05:34:18;;;;;;;4.47;2.53;;;;;;;29.05;37.68;96414.41;5071233;28;20039;-35
2022/08/26 05:36:43;;;;;;;3.85;2.47;;;;;;;29.00;37.39;96409.72;5070856;28;20024;-35
2022/08/26 05:39:09;;;;;;;3.97;2.90;;;;;;;29.04;37.41;96410.13;5071089;28;20036;-36
2022/08/26 05:41:37;;;;;;;4.22;2.85;;;;;;;29.07;37.43;96409.00;5070955;28;20075;-35
2022/08/26 05:44:05;;;;;;;3.90;2.25;;;;;;;29.06;37.31;96415.13;5091752;28;20123;-35
2022/08/26 05:46:32;;;;;;;3.78;2.60;;;;;;;29.04;37.47;96409.38;5093214;28;20026;-36
2022/08/26 05:48:58;;;;;;;3.30;3.00;;;;;;;29.04;37.23;96412.16;5093074;28;20028;-35
2022/08/26 05:51:24;;;;;;;5.45;2.60;;;;;;;29.06;37.37;96417.91;5093095;28;20027;-35
2022/08/26 05:53:50;;;;;;;4.50;2.42;;;;;;;29.07;37.37;96413.81;5095823;28;20024;-35
2022/08/26 05:56:18;;;;;;;3.22;2.92;;;;;;;29.06;37.41;96417.91;5097115;28;20020;-35
2022/08/26 05:58:44;;;;;;;3.40;2.50;;;;;;;29.06;37.51;96418.66;5096927;28;20066;-35
2022/08/26 06:01:16;;;;;;;3.47;2.53;;;;;;;29.05;37.35;96419.25;5096923;28;20024;-35
2022/08/26 06:03:44;;;;;;;3.65;2.63;;;;;;;28.98;37.60;96429.06;5096899;28;20576;-35
2022/08/26 06:06:15;;;;;;;3.10;2.58;;;;;;;28.99;37.52;96424.22;5096695;28;20047;-35
2022/08/26 06:08:41;;;;;;;2.90;2.57;;;;;;;29.00;37.39;96425.72;5096802;28;20063;-35
2022/08/26 06:11:10;;;;;;;4.13;2.65;;;;;;;28.90;37.65;96429.03;5096844;28;20098;-35
2022/08/26 06:13:36;;;;;;;4.70;2.83;;;;;;;29.01;37.41;96427.22;5096785;28;20424;-35
2022/08/26 06:16:05;;;;;;;4.05;3.03;;;;;;;28.95;37.62;96421.78;5096584;28;20048;-35
2022/08/26 06:18:35;;;;;;;3.00;2.50;;;;;;;28.97;37.53;96421.22;5096538;28;20112;-35
2022/08/26 06:21:11;;;;;;;3.47;2.58;;;;;;;29.00;37.27;96425.72;5096749;28;20107;-35
2022/08/26 06:26:21;;;;;;;3.55;2.80;;;;;;;29.03;37.30;96435.78;5104382;28;20065;-35
2022/08/26 06:28:47;;;;;;;3.33;3.03;;;;;;;29.01;37.32;96443.97;5094635;28;20444;-36
2022/08/26 06:31:14;;;;;;;4.03;2.90;;;;;;;29.02;37.08;96439.88;5108339;28;20031;-35
2022/08/26 06:33:41;;;;;;;3.10;2.80;;;;;;;29.02;37.33;96437.84;5114702;28;20027;-35
2022/08/26 06:36:07;;;;;;;3.00;2.70;;;;;;;28.98;37.21;96445.06;5114320;28;20031;-35
2022/08/26 06:38:32;;;;;;;3.15;2.72;;;;;;;28.93;37.32;96455.81;5114759;28;20028;-35
2022/08/26 06:40:59;;;;;;;4.20;2.97;;;;;;;29.07;37.33;96452.91;5114193;28;20020;-35
2022/08/26 06:43:27;;;;;;;3.80;2.75;;;;;;;29.04;37.24;96449.22;5100305;28;20047;-36
2022/08/26 06:46:04;;;;;;;3.17;2.65;;;;;;;28.97;37.20;96441.53;5092713;28;20028;-35
2022/08/26 06:48:29;;;;;;;3.17;2.63;;;;;;;29.01;37.39;96450.31;5093860;28;20032;-35
2022/08/26 06:51:13;;;;;;;3.03;2.72;;;;;;;29.00;37.35;96445.25;5093717;28;20466;-36
2022/08/26 06:53:40;;;;;;;3.70;2.78;;;;;;;29.02;37.21;96448.25;5094080;28;20066;-36
2022/08/26 06:56:08;;;;;;;3.25;2.95;;;;;;;29.07;37.08;96444.53;5093913;28;20024;-36
2022/08/26 06:58:36;;;;;;;5.80;2.90;;;;;;;29.01;37.45;96449.56;5094002;28;20036;-35
2022/08/26 07:01:03;;;;;;;3.72;2.60;;;;;;;29.00;37.46;96464.81;5093720;28;20054;-35
2022/08/26 07:03:28;;;;;;;4.53;3.03;;;;;;;29.00;37.24;96464.81;5093886;28;20027;-35
2022/08/26 07:06:01;;;;;;;4.35;2.85;;;;;;;29.01;37.38;96455.13;5093907;28;20039;-35
2022/08/26 07:08:26;;;;;;;3.65;2.83;;;;;;;28.91;37.62;96447.28;5093806;28;20043;-36
2022/08/26 07:10:52;;;;;;;3.92;2.67;;;;;;;29.04;37.20;96451.25;5093687;28;20028;-36
2022/08/26 07:13:18;;;;;;;5.55;2.50;;;;;;;29.00;37.44;96453.63;5092470;28;20028;-35
2022/08/26 07:15:43;;;;;;;3.45;2.78;;;;;;;29.01;37.03;96455.88;5076932;28;20115;-35
2022/08/26 07:18:09;;;;;;;3.33;2.83;;;;;;;28.97;37.34;96461.06;5073062;28;20118;-35
2022/08/26 07:20:39;;;;;;;3.20;2.63;;;;;;;28.97;37.28;96455.47;5112308;28;20039;-35
2022/08/26 07:23:06;;;;;;;3.42;2.72;;;;;;;28.97;37.42;96452.69;5113867;28;20023;-36
2022/08/26 07:25:32;;;;;;;3.92;2.75;;;;;;;28.95;37.58;96458.06;5113398;28;20031;-36
2022/08/26 07:27:57;;;;;;;3.13;2.75;;;;;;;28.94;37.30;96460.09;5113649;28;20030;-35
2022/08/26 07:30:24;;;;;;;4.07;2.80;;;;;;;28.95;37.25;96460.84;5113652;28;20416;-35
2022/08/26 07:32:49;;;;;;;3.38;2.65;;;;;;;28.97;37.16;96463.84;5113569;28;20032;-37
2022/08/26 07:35:15;;;;;;;2.72;2.40;;;;;;;28.94;37.33;96460.09;5113772;28;20046;-35
2022/08/26 07:37:41;;;;;;;3.20;2.78;;;;;;;29.00;37.34;96470.38;5105762;28;20028;-35
2022/08/26 07:40:08;;;;;;;3.55;2.88;;;;;;;28.99;37.30;96469.63;5076031;28;20023;-36
2022/08/26 07:42:34;;;;;;;4.40;2.97;;;;;;;29.02;37.52;96471.34;5074307;28;20510;-36
2022/08/26 07:44:59;;;;;;;3.30;2.58;;;;;;;28.99;37.08;96466.09;5092991;28;20055;-35
2022/08/26 07:47:25;;;;;;;4.10;2.97;;;;;;;28.88;37.43;96467.16;5091088;28;20051;-35
2022/08/26 07:49:51;;;;;;;4.85;2.75;;;;;;;28.85;37.61;96471.78;5092805;28;20036;-35
2022/08/26 07:52:16;;;;;;;4.50;2.53;;;;;;;28.90;37.42;96468.09;5093520;28;20386;-35
2022/08/26 07:54:43;;;;;;;3.97;2.60;;;;;;;28.89;37.20;96466.59;5094642;28;20024;-35
2022/08/26 07:57:09;;;;;;;4.50;2.80;;;;;;;28.32;37.33;96465.00;5094678;28;20032;-31
2022/08/26 07:59:34;;;;;;;3.85;3.55;;;;;;;28.17;38.11;96463.56;5093915;28;20454;-34
2022/08/26 08:02:00;;;;;;;5.00;2.97;;;;;;;28.51;37.57;96459.97;5094379;28;20109;-35
2022/08/26 08:04:26;;;;;;;3.30;3.00;;;;;;;28.72;37.32;96469.06;5076531;28;20024;-35
2022/08/26 08:06:52;;;;;;;4.20;2.90;;;;;;;28.63;37.31;96466.75;5095056;28;20012;-35
2022/08/26 08:09:18;;;;;;;3.40;2.88;;;;;;;28.61;37.09;96463.78;5094280;28;20034;-35
2022/08/26 08:11:44;;;;;;;5.00;3.00;;;;;;;28.63;37.32;96475.13;5094577;28;20028;-35
2022/08/26 08:14:10;;;;;;;3.70;2.63;;;;;;;28.64;37.42;96473.84;5094480;28;20073;-35
2022/08/26 08:16:35;;;;;;;3.50;2.90;;;;;;;28.81;36.94;96471.38;5093892;28;20024;-35
2022/08/26 08:19:01;;;;;;;4.07;3.08;;;;;;;28.84;37.03;96469.53;5094299;28;20046;-35
2022/08/26 08:21:27;;;;;;;4.28;3.20;;;;;;;28.77;37.23;96470.97;5094209;28;20020;-35
2022/08/26 08:23:55;;;;;;;3.60;3.30;;;;;;;28.80;37.15;96463.56;5094412;28;20024;-35
2022/08/26 08:26:22;;;;;;;3.70;2.60;;;;;;;28.82;36.96;96467.28;5094315;28;20027;-35
2022/08/26 08:28:47;;;;;;;4.55;2.72;;;;;;;28.88;36.96;96467.16;5094037;28;20032;-35
2022/08/26 08:31:25;;;;;;;3.70;3.10;;;;;;;28.64;37.07;96473.09;5094472;28;20505;-35
2022/08/26 08:33:51;;;;;;;5.40;3.00;;;;;;;28.78;37.15;96472.50;5076027;28;20052;-35
2022/08/26 08:36:17;;;;;;;3.45;2.67;;;;;;;28.76;36.86;96474.31;5093989;28;20097;-35
2022/08/26 08:38:43;;;;;;;5.15;3.13;;;;;;;28.81;36.86;96471.38;5093981;28;20020;-35
2022/08/26 08:41:47;;;;;;;3.42;2.80;;;;;;;28.80;36.77;96471.94;5094070;28;20030;-35
2022/08/26 08:44:21;;;;;;;3.95;3.20;;;;;;;28.76;37.34;96466.69;5093890;28;20052;-35
2022/08/26 08:46:53;;;;;;;5.68;3.00;;;;;;;28.62;38.02;96470.09;5093806;28;20031;-35
2022/08/26 08:49:24;;;;;;;6.93;2.77;;;;;;;28.72;37.45;96471.84;5093991;28;20042;-35
2022/08/26 08:52:00;;;;;;;3.90;3.10;;;;;;;28.71;37.95;96464.78;5093650;28;20024;-35
2022/08/26 08:54:25;;;;;;;4.55;3.03;;;;;;;28.58;38.85;96467.66;5093798;28;20418;-35
2022/08/26 08:57:01;;;;;;;3.97;2.97;;;;;;;28.57;38.90;96469.69;5094080;28;20102;-35
2022/08/26 08:59:33;;;;;;;4.03;3.10;;;;;;;28.55;39.42;96465.97;5093865;28;20051;-35
2022/08/26 09:02:13;;;;;;;4.32;3.30;;;;;;;28.69;38.88;96469.41;5093888;28;20024;-35
2022/08/26 09:04:38;;;;;;;5.25;3.25;;;;;;;28.67;39.02;96467.19;5093567;28;20081;-35
2022/08/26 09:07:09;;;;;;;3.95;2.83;;;;;;;28.76;38.58;96468.72;5093556;28;20016;-35
2022/08/26 09:09:39;;;;;;;4.20;3.03;;;;;;;28.77;38.47;96468.19;5093617;28;20023;-35
2022/08/26 09:12:12;;;;;;;5.35;3.22;;;;;;;28.78;38.41;96455.75;5093692;28;20036;-35
2022/08/26 09:14:37;;;;;;;;;;;;;;;28.74;38.31;96460.88;5093812;28;20468;-35
2022/08/26 09:17:16;;;;;;;;;;;;;;;28.72;38.49;96452.31;5094063;28;19916;-36
2022/08/26 09:19:45;;;;;;;;;;;;;;;28.57;40.01;96457.78;5093964;28;19915;-36
2022/08/26 09:22:25;;;;;;;;;;;;;;;28.35;40.13;96455.56;5094088;28;19915;-35
2022/08/26 09:24:51;;;;;;;;;;;;;;;28.50;40.37;96455.69;5093785;28;19915;-35
2022/08/26 09:27:41;;;;;;;;;;;;;;;28.48;39.53;96461.06;5094103;28;19908;-35
2022/08/26 09:30:08;;;;;;;;;;;;;;;28.08;40.39;96466.06;5090427;28;20376;-35
2022/08/26 09:32:34;;;;;;;;;;;;;;;28.56;39.27;96459.09;5098005;28;19912;-35
2022/08/26 09:34:59;;;;;;;;;;;;;;;28.68;38.94;96451.19;5097797;28;19931;-34
2022/08/26 09:37:38;;;;;;;;;;;;;;;28.51;39.35;96454.41;5098252;28;20265;-34
2022/08/26 09:40:30;;;;;;;;;;;;;;;28.28;39.89;96453.47;5097834;28;19998;-35
2022/08/26 09:43:04;;;;;;;;;;;;;;;28.49;39.33;96451.41;5094362;28;19924;-35
2022/08/26 09:45:29;;;;;;;;;;;;;;;28.45;39.17;96451.00;5097740;28;19912;-35
2022/08/26 09:47:55;;;;;;;;;;;;;;;28.54;39.11;96451.28;5097958;28;20323;-35
2022/08/26 09:50:29;;;;;;;;;;;;;;;28.35;38.72;96442.38;5094703;28;19947;-34
2022/08/26 09:53:06;;;;;;;;;;;;;;;28.61;38.81;96449.81;5075595;28;19912;-35
2022/08/26 09:55:31;;;;;;;;;;;;;;;28.48;38.75;96442.28;5076842;28;19912;-35
2022/08/26 09:57:57;;;;;;;;;;;;;;;28.46;38.73;96447.66;5077410;28;19935;-35
2022/08/26 10:00:25;;;;;;;;;;;;;;;28.50;38.63;96441.75;5059115;28;19912;-34
2022/08/26 10:02:50;;;;;;;;;;;;;;;28.60;38.75;96440.69;5077369;28;19916;-34
2022/08/26 10:05:25;;;;;;;;;;;;;;;28.69;38.26;96433.88;5077105;28;20354;-35
2022/08/26 10:07:50;;;;;;;;;;;;;;;28.67;38.57;96427.34;5076621;28;19912;-35
2022/08/26 10:10:20;;;;;;;;;;;;;;;28.48;39.00;96424.78;5076673;28;19908;-35
2022/08/26 10:12:51;;;;;;;;;;;;;;;28.61;38.81;96424.72;5077062;28;20392;-35
2022/08/26 10:15:17;;;;;;;;;;;;;;;28.73;38.30;96428.69;5077150;28;19942;-35
2022/08/26 10:18:18;;;;;;;;;;;;;;;28.54;38.84;96425.41;5076731;28;19920;-35
2022/08/26 10:20:53;;;;;;;;;;;;;;;28.37;39.18;96414.69;5014899;28;20008;-35
2022/08/26 10:23:21;;;;;;;;;;;;;;;28.31;39.27;96430.81;5014988;28;19909;-35
2022/08/26 10:26:16;;;;;;;;;;;;;;;28.31;39.51;96421.69;5014957;28;19909;-35
2022/08/26 10:29:07;;;;;;;;;;;;;;;28.39;39.15;96408.56;4956559;29;19918;-35
2022/08/26 10:31:42;;;;;;;;;;;;;;;28.46;39.06;96402.28;4953587;29;19910;-35
2022/08/26 10:34:08;;;;;;;;;;;;;;;28.65;38.45;96408.38;4956404;29;19910;-35
2022/08/26 10:36:48;;;;;;;;;;;;;;;28.68;38.42;96407.28;4956388;29;19958;-35
2022/08/26 10:39:18;;;;;;;;;;;;;;;28.83;38.18;96404.59;4940136;29;20276;-35
2022/08/26 10:41:46;;;;;;;;;;;;;;;28.75;38.31;96401.00;4956280;29;20416;-35
2022/08/26 10:44:13;;;;;;;;;;;;;;;28.54;38.83;96403.84;4956447;29;20004;-34
2022/08/26 10:46:44;;;;;;;;;;;;;;;28.52;38.85;96403.63;4956100;29;19910;-35
2022/08/26 10:49:12;;;;;;;;;;;;;;;28.52;39.10;96405.69;4956179;29;20008;-35
2022/08/26 10:51:51;;;;;;;;;;;;;;;28.78;38.21;96388.75;4956034;29;19915;-35
2022/08/26 10:54:17;;;;;;;;;;;;;;;28.83;38.07;96393.44;4975663;28;19916;-35
2022/08/26 10:56:42;;;;;;;;;;;;;;;28.82;38.25;96389.13;5014425;28;20537;-35
2022/08/26 10:59:13;;;;;;;;;;;;;;;28.87;38.09;96393.09;5014260;28;19909;-35
2022/08/26 11:01:41;;;;;;;;;;;;;;;28.83;38.24;96379.47;5014523;28;20300;-35
2022/08/26 11:04:13;;;;;;;;;;;;;;;28.84;37.97;96394.91;5021169;28;19913;-34
2022/08/26 11:06:38;;;;;;;;;;;;;;;28.79;38.30;96386.72;5075881;28;20382;-35
2022/08/26 11:09:07;;;;;;;;;;;;;;;28.87;38.03;96370.75;5075972;28;19908;-35
2022/08/26 11:11:38;;;;;;;;;;;;;;;28.90;37.92;96378.78;5075900;28;19908;-35
2022/08/26 11:14:04;;;;;;;;;;;;;;;28.92;37.91;96367.81;5075693;28;19908;-35
2022/08/26 11:16:44;;;;;;;;;;;;;;;28.90;37.95;96373.19;5075666;28;19923;-35
2022/08/26 11:19:11;;;;;;;;;;;;;;;28.88;38.09;96370.19;5075824;28;19951;-35
2022/08/26 11:22:03;;;;;;;;;;;;;;;28.88;38.00;96375.03;5075582;28;19916;-35
2022/08/26 11:24:43;;;;;;;;;;;;;;;28.92;37.78;96375.44;5075714;28;19917;-35
2022/08/26 11:27:31;;;;;;;;;;;;;;;28.94;38.01;96373.56;5075639;28;19912;-35
2022/08/26 11:30:05;;;;;;;;;;;;;;;28.95;37.94;96375.06;5075322;28;19912;-35
2022/08/26 11:32:34;;;;;;;;;;;;;;;28.99;37.89;96368.38;5075389;28;19961;-34
2022/08/26 11:35:01;;;;;;;;;;;;;;;28.99;37.90;96368.38;5075184;28;20434;-35
2022/08/26 11:37:40;;;;;;;;;;;;;;;28.98;37.93;96366.88;5057258;28;19912;-35
2022/08/26 11:40:07;;;;;;;;;;;;;;;28.98;37.79;96358.50;5075264;28;19909;-35
2022/08/26 11:42:43;;;;;;;;;;;;;;;29.02;38.01;96367.28;5074997;28;19970;-35
2022/08/26 11:45:20;;;;;;;;;;;;;;;29.03;37.57;96360.41;5075465;28;19908;-35
2022/08/26 11:47:45;;;;;;;;;;;;;;;29.07;37.67;96349.59;5075323;28;19908;-35
2022/08/26 11:50:12;;;;;;;;;;;;;;;29.05;37.64;96343.84;5074258;28;19908;-35
2022/08/26 11:52:38;;;;;;;;;;;;;;;29.05;37.64;96355.03;5075246;28;19909;-35
2022/08/26 11:55:06;;;;;;;;;;;;;;;29.04;37.64;96347.94;5074967;28;20292;-35
2022/08/26 11:57:33;;;;;;;;;;;;;;;29.04;37.46;96345.16;5075315;28;19916;-35
2022/08/26 12:00:00;;;;;;;;;;;;;;;29.06;37.53;96342.53;5074949;28;19908;-35
2022/08/26 12:02:26;;;;;;;;;;;;;;;29.03;37.72;96332.50;5074719;28;19908;-35